PWSweather.com
Personal Weather Stations
Station Observations
VAGALAX1
Taylorwoods , Galax, VA 24333

Taylorwoods Galax, VA 24333

Lat: 36.679, Lon: -80.888

Elevation: 2650

Station Type: Davis Vantage Pro 2

Latest ConditionsUpdated 8:30:01 AM EST Friday, Jan 19, 2018
Currently Today's Max Today's Min Today's Average
Temperature 23.0°F-5.0°C 24.1°F-4.4°C 22.0°F-5.6°C 22.8°F-5.1°C
Dew Point 8.0°F-13.3°C 8.4°F-13.1°C 4.1°F-15.5°C 6.7°F-14.1°C
Winds Calm Calm 2.3 mph NE3.7 kmh NE - 0.1 mph 0.2 kmh
Wind Gusts -- 3.5 mph5.6 kmh - -
Humidity 52% 54% 42% 50%
Pressure 30.39 in1029.1 mb 30.43 in1030.5 mb 30.36 in1028.1 mb -
Hour Temp Dew Point Humidity Winds Wind Gusts Pressure Precip Precip Rate Daily Precip Total
08:30 AM 23.0°F-5.0°C 8.0°F-13.3°C 52% Calm Calm -- 30.39 in1029.1 mb - 0.00 in0.0 mm 0.00 in0.0 mm
08:25 AM 23.3°F-4.8°C 7.8°F-13.4°C 51% Calm Calm -- 30.39 in1029.1 mb - 0.00 in0.0 mm 0.00 in0.0 mm
08:20 AM 23.5°F-4.7°C 8.0°F-13.3°C 51% Calm Calm -- 30.39 in1029.1 mb - 0.00 in0.0 mm 0.00 in0.0 mm
08:15 AM 23.6°F-4.7°C 5.8°F-14.6°C 46% Calm Calm -- 30.39 in1029.1 mb - 0.00 in0.0 mm 0.00 in0.0 mm
08:10 AM 23.7°F-4.6°C 5.9°F-14.5°C 46% Calm Calm -- 30.39 in1029.1 mb - 0.00 in0.0 mm 0.00 in0.0 mm
08:00 AM 23.9°F-4.5°C 4.6°F-15.2°C 43% Calm Calm -- 30.39 in1029.1 mb - 0.00 in0.0 mm 0.00 in0.0 mm
07:55 AM 23.9°F-4.5°C 4.1°F-15.5°C 42% Calm Calm -- 30.39 in1029.1 mb - 0.00 in0.0 mm 0.00 in0.0 mm
07:50 AM 23.9°F-4.5°C 4.1°F-15.5°C 42% Calm Calm -- 30.39 in1029.1 mb - 0.00 in0.0 mm 0.00 in0.0 mm
07:45 AM 23.9°F-4.5°C 4.1°F-15.5°C 42% Calm Calm -- 30.39 in1029.1 mb - 0.00 in0.0 mm 0.00 in0.0 mm
07:40 AM 23.8°F-4.6°C 4.1°F-15.5°C 42% Calm Calm -- 30.39 in1029.1 mb - 0.00 in0.0 mm 0.00 in0.0 mm
07:35 AM 23.9°F-4.5°C 4.6°F-15.2°C 43% Calm Calm -- 30.38 in1028.8 mb - 0.00 in0.0 mm 0.00 in0.0 mm
07:30 AM 24.0°F-4.4°C 4.7°F-15.2°C 43% Calm Calm -- 30.38 in1028.8 mb - 0.00 in0.0 mm 0.00 in0.0 mm
07:25 AM 24.1°F-4.4°C 4.8°F-15.1°C 43% Calm Calm -- 30.38 in1028.8 mb - 0.00 in0.0 mm 0.00 in0.0 mm
07:20 AM 24.1°F-4.4°C 4.8°F-15.1°C 43% Calm Calm 1.2 mph1.9 kmh 30.38 in1028.8 mb - 0.00 in0.0 mm 0.00 in0.0 mm
07:15 AM 24.1°F-4.4°C 4.8°F-15.1°C 43% Calm Calm -- 30.39 in1029.1 mb - 0.00 in0.0 mm 0.00 in0.0 mm
07:10 AM 23.9°F-4.5°C 4.7°F-15.2°C 43% Calm Calm -- 30.39 in1029.1 mb - 0.00 in0.0 mm 0.00 in0.0 mm
07:00 AM 23.5°F-4.7°C 4.8°F-15.1°C 44% Calm Calm -- 30.39 in1029.1 mb - 0.00 in0.0 mm 0.00 in0.0 mm
06:55 AM 23.3°F-4.8°C 5.1°F-14.9°C 45% Calm Calm 1.2 mph1.9 kmh 30.39 in1029.1 mb - 0.00 in0.0 mm 0.00 in0.0 mm
06:50 AM 23.1°F-4.9°C 4.9°F-15.1°C 45% Calm Calm -- 30.39 in1029.1 mb - 0.00 in0.0 mm 0.00 in0.0 mm
06:45 AM 22.9°F-5.1°C 5.2°F-14.9°C 46% Calm Calm 1.2 mph1.9 kmh 30.39 in1029.1 mb - 0.00 in0.0 mm 0.00 in0.0 mm
06:40 AM 22.8°F-5.1°C 5.6°F-14.7°C 47% Calm Calm -- 30.39 in1029.1 mb - 0.00 in0.0 mm 0.00 in0.0 mm
06:35 AM 22.7°F-5.2°C 5.5°F-14.7°C 47% Calm Calm 1.2 mph1.9 kmh 30.39 in1029.1 mb - 0.00 in0.0 mm 0.00 in0.0 mm
06:30 AM 22.5°F-5.3°C 5.3°F-14.8°C 47% Calm Calm 1.2 mph1.9 kmh 30.39 in1029.1 mb - 0.00 in0.0 mm 0.00 in0.0 mm
06:25 AM 22.3°F-5.4°C 5.6°F-14.7°C 48% Calm Calm 1.2 mph1.9 kmh 30.39 in1029.1 mb - 0.00 in0.0 mm 0.00 in0.0 mm
06:20 AM 22.2°F-5.4°C 5.9°F-14.5°C 49% Calm Calm 1.2 mph1.9 kmh 30.38 in1028.8 mb - 0.00 in0.0 mm 0.00 in0.0 mm
06:15 AM 22.2°F-5.4°C 5.9°F-14.5°C 49% Calm Calm 1.2 mph1.9 kmh 30.38 in1028.8 mb - 0.00 in0.0 mm 0.00 in0.0 mm
06:10 AM 22.1°F-5.5°C 5.8°F-14.6°C 49% Calm Calm -- 30.39 in1029.1 mb - 0.00 in0.0 mm 0.00 in0.0 mm
06:00 AM 22.0°F-5.6°C 6.2°F-14.3°C 50% Calm Calm -- 30.38 in1028.8 mb - 0.00 in0.0 mm 0.00 in0.0 mm
05:55 AM 22.0°F-5.6°C 6.2°F-14.3°C 50% Calm Calm -- 30.38 in1028.8 mb - 0.00 in0.0 mm 0.00 in0.0 mm
05:50 AM 22.0°F-5.6°C 6.2°F-14.3°C 50% Calm Calm -- 30.38 in1028.8 mb - 0.00 in0.0 mm 0.00 in0.0 mm
05:45 AM 22.1°F-5.5°C 6.3°F-14.3°C 50% Calm Calm -- 30.38 in1028.8 mb - 0.00 in0.0 mm 0.00 in0.0 mm
05:40 AM 22.1°F-5.5°C 6.7°F-14.1°C 51% Calm Calm -- 30.38 in1028.8 mb - 0.00 in0.0 mm 0.00 in0.0 mm
05:35 AM 22.1°F-5.5°C 6.3°F-14.3°C 50% Calm Calm -- 30.37 in1028.4 mb - 0.00 in0.0 mm 0.00 in0.0 mm
05:30 AM 22.1°F-5.5°C 6.3°F-14.3°C 50% Calm Calm -- 30.36 in1028.1 mb - 0.00 in0.0 mm 0.00 in0.0 mm
05:25 AM 22.1°F-5.5°C 7.1°F-13.8°C 52% Calm Calm -- 30.37 in1028.4 mb - 0.00 in0.0 mm 0.00 in0.0 mm
05:20 AM 22.2°F-5.4°C 6.4°F-14.2°C 50% Calm Calm -- 30.37 in1028.4 mb - 0.00 in0.0 mm 0.00 in0.0 mm
05:15 AM 22.1°F-5.5°C 6.3°F-14.3°C 50% Calm Calm -- 30.37 in1028.4 mb - 0.00 in0.0 mm 0.00 in0.0 mm
05:10 AM 22.2°F-5.4°C 6.4°F-14.2°C 50% Calm Calm -- 30.37 in1028.4 mb - 0.00 in0.0 mm 0.00 in0.0 mm
05:00 AM 22.3°F-5.4°C 6.9°F-13.9°C 51% Calm Calm -- 30.38 in1028.8 mb - 0.00 in0.0 mm 0.00 in0.0 mm
04:55 AM 22.5°F-5.3°C 7.1°F-13.8°C 51% Calm Calm -- 30.38 in1028.8 mb - 0.00 in0.0 mm 0.00 in0.0 mm
04:50 AM 22.5°F-5.3°C 6.7°F-14.1°C 50% Calm Calm -- 30.38 in1028.8 mb - 0.00 in0.0 mm 0.00 in0.0 mm
04:45 AM 22.5°F-5.3°C 6.6°F-14.1°C 50% Calm Calm -- 30.37 in1028.4 mb - 0.00 in0.0 mm 0.00 in0.0 mm
04:40 AM 22.5°F-5.3°C 6.6°F-14.1°C 50% Calm Calm -- 30.37 in1028.4 mb - 0.00 in0.0 mm 0.00 in0.0 mm
04:35 AM 22.5°F-5.3°C 6.6°F-14.1°C 50% Calm Calm -- 30.38 in1028.8 mb - 0.00 in0.0 mm 0.00 in0.0 mm
04:30 AM 22.5°F-5.3°C 6.6°F-14.1°C 50% Calm Calm -- 30.38 in1028.8 mb - 0.00 in0.0 mm 0.00 in0.0 mm
04:25 AM 22.5°F-5.3°C 6.6°F-14.1°C 50% Calm Calm -- 30.38 in1028.8 mb - 0.00 in0.0 mm 0.00 in0.0 mm
04:20 AM 22.5°F-5.3°C 6.6°F-14.1°C 50% Calm Calm -- 30.38 in1028.8 mb - 0.00 in0.0 mm 0.00 in0.0 mm
04:15 AM 22.5°F-5.3°C 7.1°F-13.8°C 51% Calm Calm -- 30.38 in1028.8 mb - 0.00 in0.0 mm 0.00 in0.0 mm
04:10 AM 22.6°F-5.2°C 7.2°F-13.8°C 51% Calm Calm 1.2 mph1.9 kmh 30.38 in1028.8 mb - 0.00 in0.0 mm 0.00 in0.0 mm
04:00 AM 22.8°F-5.1°C 6.9°F-13.9°C 50% Calm Calm -- 30.38 in1028.8 mb - 0.00 in0.0 mm 0.00 in0.0 mm
03:55 AM 22.8°F-5.1°C 6.9°F-13.9°C 50% Calm Calm 1.2 mph1.9 kmh 30.38 in1028.8 mb - 0.00 in0.0 mm 0.00 in0.0 mm
03:50 AM 22.9°F-5.1°C 6.6°F-14.1°C 49% Calm Calm -- 30.38 in1028.8 mb - 0.00 in0.0 mm 0.00 in0.0 mm
03:45 AM 22.9°F-5.1°C 7.0°F-13.9°C 50% Calm Calm -- 30.38 in1028.8 mb - 0.00 in0.0 mm 0.00 in0.0 mm
03:40 AM 22.9°F-5.1°C 7.0°F-13.9°C 50% Calm Calm -- 30.38 in1028.8 mb - 0.00 in0.0 mm 0.00 in0.0 mm
03:35 AM 22.8°F-5.1°C 6.9°F-13.9°C 50% Calm Calm -- 30.39 in1029.1 mb - 0.00 in0.0 mm 0.00 in0.0 mm
03:30 AM 22.8°F-5.1°C 6.9°F-13.9°C 50% Calm Calm -- 30.39 in1029.1 mb - 0.00 in0.0 mm 0.00 in0.0 mm
03:25 AM 22.8°F-5.1°C 7.4°F-13.7°C 51% Calm Calm -- 30.39 in1029.1 mb - 0.00 in0.0 mm 0.00 in0.0 mm
03:20 AM 22.8°F-5.1°C 7.4°F-13.7°C 51% Calm Calm -- 30.38 in1028.8 mb - 0.00 in0.0 mm 0.00 in0.0 mm
03:15 AM 22.9°F-5.1°C 7.0°F-13.9°C 50% Calm Calm -- 30.38 in1028.8 mb - 0.00 in0.0 mm 0.00 in0.0 mm
03:10 AM 22.9°F-5.1°C 7.4°F-13.7°C 51% Calm Calm -- 30.39 in1029.1 mb - 0.00 in0.0 mm 0.00 in0.0 mm
03:00 AM 22.9°F-5.1°C 7.0°F-13.9°C 50% Calm Calm 1.2 mph1.9 kmh 30.39 in1029.1 mb - 0.00 in0.0 mm 0.00 in0.0 mm
02:55 AM 22.9°F-5.1°C 7.0°F-13.9°C 50% Calm Calm -- 30.39 in1029.1 mb - 0.00 in0.0 mm 0.00 in0.0 mm
02:50 AM 22.8°F-5.1°C 7.4°F-13.7°C 51% Calm Calm -- 30.39 in1029.1 mb - 0.00 in0.0 mm 0.00 in0.0 mm
02:45 AM 22.7°F-5.2°C 7.3°F-13.7°C 51% Calm Calm -- 30.40 in1029.5 mb - 0.00 in0.0 mm 0.00 in0.0 mm
02:40 AM 22.7°F-5.2°C 7.2°F-13.8°C 51% Calm Calm 1.2 mph1.9 kmh 30.39 in1029.1 mb - 0.00 in0.0 mm 0.00 in0.0 mm
02:35 AM 22.7°F-5.2°C 7.7°F-13.5°C 52% Calm Calm 1.2 mph1.9 kmh 30.39 in1029.1 mb - 0.00 in0.0 mm 0.00 in0.0 mm
02:30 AM 22.8°F-5.1°C 7.8°F-13.4°C 52% 2.3 mph NE3.7 kmh NE 2.3 mph3.7 kmh 30.39 in1029.1 mb - 0.00 in0.0 mm 0.00 in0.0 mm
02:25 AM 23.0°F-5.0°C 7.5°F-13.6°C 51% 1.2 mph NE1.9 kmh NE 3.5 mph5.6 kmh 30.39 in1029.1 mb - 0.00 in0.0 mm 0.00 in0.0 mm
02:20 AM 22.9°F-5.1°C 7.0°F-13.9°C 50% 1.2 mph NE1.9 kmh NE 2.3 mph3.7 kmh 30.39 in1029.1 mb - 0.00 in0.0 mm 0.00 in0.0 mm
02:15 AM 22.9°F-5.1°C 7.4°F-13.7°C 51% Calm Calm -- 30.40 in1029.5 mb - 0.00 in0.0 mm 0.00 in0.0 mm
02:10 AM 22.9°F-5.1°C 7.4°F-13.7°C 51% Calm Calm 1.2 mph1.9 kmh 30.40 in1029.5 mb - 0.00 in0.0 mm 0.00 in0.0 mm
02:00 AM 22.7°F-5.2°C 8.1°F-13.3°C 53% Calm Calm -- 30.40 in1029.5 mb - 0.00 in0.0 mm 0.00 in0.0 mm
01:55 AM 22.6°F-5.2°C 7.2°F-13.8°C 51% Calm Calm -- 30.41 in1029.8 mb - 0.00 in0.0 mm 0.00 in0.0 mm
01:50 AM 22.5°F-5.3°C 7.5°F-13.6°C 52% Calm Calm -- 30.40 in1029.5 mb - 0.00 in0.0 mm 0.00 in0.0 mm
01:45 AM 22.4°F-5.3°C 7.8°F-13.4°C 53% 1.2 mph NE1.9 kmh NE 2.3 mph3.7 kmh 30.40 in1029.5 mb - 0.00 in0.0 mm 0.00 in0.0 mm
01:40 AM 22.3°F-5.4°C 7.7°F-13.5°C 53% Calm Calm 3.5 mph5.6 kmh 30.41 in1029.8 mb - 0.00 in0.0 mm 0.00 in0.0 mm
01:35 AM 22.2°F-5.4°C 7.7°F-13.5°C 53% Calm Calm -- 30.40 in1029.5 mb - 0.00 in0.0 mm 0.00 in0.0 mm
01:30 AM 22.4°F-5.3°C 7.8°F-13.4°C 53% Calm Calm 1.2 mph1.9 kmh 30.40 in1029.5 mb - 0.00 in0.0 mm 0.00 in0.0 mm
01:25 AM 22.5°F-5.3°C 7.9°F-13.4°C 53% Calm Calm -- 30.40 in1029.5 mb - 0.00 in0.0 mm 0.00 in0.0 mm
01:20 AM 22.6°F-5.2°C 7.6°F-13.6°C 52% Calm Calm 2.3 mph3.7 kmh 30.41 in1029.8 mb - 0.00 in0.0 mm 0.00 in0.0 mm
01:15 AM 22.6°F-5.2°C 8.0°F-13.3°C 53% Calm Calm -- 30.41 in1029.8 mb - 0.00 in0.0 mm 0.00 in0.0 mm
01:10 AM 22.7°F-5.2°C 7.7°F-13.5°C 52% 1.2 mph NE1.9 kmh NE 2.3 mph3.7 kmh 30.42 in1030.1 mb - 0.00 in0.0 mm 0.00 in0.0 mm
01:00 AM 22.3°F-5.4°C 7.3°F-13.7°C 52% Calm Calm 1.2 mph1.9 kmh 30.42 in1030.1 mb - 0.00 in0.0 mm 0.00 in0.0 mm
12:55 AM 22.2°F-5.4°C 7.6°F-13.6°C 53% Calm Calm -- 30.41 in1029.8 mb - 0.00 in0.0 mm 0.00 in0.0 mm
12:50 AM 22.1°F-5.5°C 8.0°F-13.3°C 54% Calm Calm 1.2 mph1.9 kmh 30.42 in1030.1 mb - 0.00 in0.0 mm 0.00 in0.0 mm
12:45 AM 22.2°F-5.4°C 8.0°F-13.3°C 54% Calm Calm -- 30.42 in1030.1 mb - 0.00 in0.0 mm 0.00 in0.0 mm
12:40 AM 22.3°F-5.4°C 8.2°F-13.2°C 54% 1.2 mph NE1.9 kmh NE 2.3 mph3.7 kmh 30.42 in1030.1 mb - 0.00 in0.0 mm 0.00 in0.0 mm
12:35 AM 22.4°F-5.3°C 7.8°F-13.4°C 53% 2.3 mph NE3.7 kmh NE 2.3 mph3.7 kmh 30.42 in1030.1 mb - 0.00 in0.0 mm 0.00 in0.0 mm
12:30 AM 22.4°F-5.3°C 8.2°F-13.2°C 54% Calm Calm -- 30.42 in1030.1 mb - 0.00 in0.0 mm 0.00 in0.0 mm
12:25 AM 22.5°F-5.3°C 8.3°F-13.2°C 54% Calm Calm -- 30.43 in1030.5 mb - 0.00 in0.0 mm 0.00 in0.0 mm
12:20 AM 22.5°F-5.3°C 8.3°F-13.2°C 54% Calm Calm 1.2 mph1.9 kmh 30.43 in1030.5 mb - 0.00 in0.0 mm 0.00 in0.0 mm
12:15 AM 22.5°F-5.3°C 8.3°F-13.2°C 54% Calm Calm -- 30.43 in1030.5 mb - 0.00 in0.0 mm 0.00 in0.0 mm
12:10 AM 22.4°F-5.3°C 7.8°F-13.4°C 53% 1.2 mph NE1.9 kmh NE 3.5 mph5.6 kmh 30.43 in1030.5 mb - 0.00 in0.0 mm 0.00 in0.0 mm
12:00 AM 22.6°F-5.2°C 8.4°F-13.1°C 54% 1.2 mph N1.9 kmh N 2.3 mph3.7 kmh 30.43 in1030.5 mb - 0.00 in0.0 mm 0.00 in0.0 mm